createdAt,value
2018-09-01T00:01:09.415Z,19.70
2018-09-01T00:03:37.630Z,19.70
2018-09-01T00:06:06.096Z,19.70
2018-09-01T00:08:34.954Z,19.70
2018-09-01T00:11:03.383Z,19.70
2018-09-01T00:13:31.756Z,19.60
2018-09-01T00:16:00.115Z,19.60
2018-09-01T00:18:28.492Z,19.60
2018-09-01T00:20:56.832Z,19.60
2018-09-01T00:23:25.401Z,19.60
2018-09-01T00:25:53.806Z,19.60
2018-09-01T00:28:22.119Z,19.60
2018-09-01T00:30:50.651Z,19.60
2018-09-01T00:33:20.698Z,19.50
2018-09-01T00:38:33.279Z,19.50
2018-09-01T00:41:02.904Z,19.50
2018-09-01T00:43:31.991Z,19.50
2018-09-01T00:46:00.451Z,19.40
2018-09-01T00:48:29.154Z,19.50
2018-09-01T00:51:00.155Z,19.40
2018-09-01T00:53:28.454Z,19.40
2018-09-01T00:58:35.420Z,19.40
2018-09-01T01:01:03.770Z,19.40
2018-09-01T01:03:32.000Z,19.40
2018-09-01T01:06:00.403Z,19.40
2018-09-01T01:08:28.673Z,19.30
2018-09-01T01:10:57.191Z,19.30
2018-09-01T01:13:25.567Z,19.30
2018-09-01T01:15:53.891Z,19.30
2018-09-01T01:21:01.136Z,19.30
2018-09-01T01:23:29.482Z,19.20
2018-09-01T01:28:35.916Z,19.30
2018-09-01T01:31:04.567Z,19.20
2018-09-01T01:33:33.777Z,19.20
2018-09-01T01:36:02.287Z,19.20
2018-09-01T01:38:30.570Z,19.20
2018-09-01T01:40:58.863Z,19.20
2018-09-01T01:43:26.973Z,19.20
2018-09-01T01:45:55.735Z,19.20
2018-09-01T01:48:24.059Z,19.10
2018-09-01T01:50:52.376Z,19.10
2018-09-01T01:53:20.945Z,19.10
2018-09-01T01:55:49.493Z,19.10
2018-09-01T01:58:17.940Z,19.10
2018-09-01T02:00:46.369Z,19.10
2018-09-01T02:03:14.745Z,19.10
2018-09-01T02:05:43.432Z,19.10
2018-09-01T02:08:11.951Z,19.00
2018-09-01T02:10:40.432Z,19.00
2018-09-01T02:13:08.910Z,19.00
2018-09-01T02:18:16.877Z,19.00
2018-09-01T02:20:45.201Z,19.00
2018-09-01T02:23:13.928Z,19.00
2018-09-01T02:25:42.524Z,19.00
2018-09-01T02:28:11.356Z,18.90
2018-09-01T02:30:40.155Z,19.00
2018-09-01T02:33:09.449Z,19.00
2018-09-01T02:35:38.393Z,18.90
2018-09-01T02:38:07.629Z,18.90
2018-09-01T02:40:36.367Z,18.90
2018-09-01T02:43:05.072Z,18.90
2018-09-01T02:45:33.395Z,18.90
2018-09-01T02:48:02.112Z,18.90
2018-09-01T02:50:30.565Z,18.90
2018-09-01T02:53:01.279Z,18.90
2018-09-01T02:55:29.446Z,18.90
2018-09-01T02:57:57.804Z,18.90
2018-09-01T03:00:31.727Z,18.80
2018-09-01T03:03:00.105Z,18.80
2018-09-01T03:05:28.394Z,18.80
2018-09-01T03:07:56.706Z,18.80
2018-09-01T03:10:25.282Z,18.80
2018-09-01T03:12:53.636Z,18.80
2018-09-01T03:15:21.887Z,18.80
2018-09-01T03:17:50.267Z,18.80
2018-09-01T03:20:18.730Z,18.80
2018-09-01T03:22:47.294Z,18.70
2018-09-01T03:25:15.626Z,18.70
2018-09-01T03:27:43.862Z,18.70
2018-09-01T03:30:12.381Z,18.70
2018-09-01T03:32:40.735Z,18.70
2018-09-01T03:35:09.046Z,18.70
2018-09-01T03:37:37.627Z,18.70
2018-09-01T03:40:06.882Z,18.70
2018-09-01T03:42:35.804Z,18.70
2018-09-01T03:45:04.037Z,18.70
2018-09-01T03:47:32.395Z,18.60
2018-09-01T03:50:00.693Z,18.60
2018-09-01T03:52:29.143Z,18.60
2018-09-01T03:54:57.441Z,18.60
2018-09-01T03:57:25.590Z,18.60
2018-09-01T03:59:54.151Z,18.60
2018-09-01T04:02:23.397Z,18.60
2018-09-01T04:04:51.716Z,18.60
2018-09-01T04:07:19.811Z,18.60
2018-09-01T04:09:47.984Z,18.60
2018-09-01T04:12:16.100Z,18.60
2018-09-01T04:14:44.305Z,18.60
2018-09-01T04:17:12.486Z,18.60
2018-09-01T04:19:40.675Z,18.50
2018-09-01T04:22:08.871Z,18.50
2018-09-01T04:24:36.987Z,18.50
2018-09-01T04:27:05.201Z,18.50
2018-09-01T04:29:33.322Z,18.50
2018-09-01T04:32:01.548Z,18.50
2018-09-01T04:34:29.763Z,18.50
2018-09-01T04:36:58.121Z,18.40
2018-09-01T04:39:26.378Z,18.50
2018-09-01T04:41:54.542Z,18.40
2018-09-01T04:44:22.683Z,18.40
2018-09-01T04:46:50.849Z,18.40
2018-09-01T04:49:18.991Z,18.40
2018-09-01T04:51:47.263Z,18.40
2018-09-01T04:54:15.451Z,18.40
2018-09-01T04:56:43.604Z,18.40
2018-09-01T04:59:11.817Z,18.40
2018-09-01T05:01:40.047Z,18.40
2018-09-01T05:04:08.175Z,18.40
2018-09-01T05:06:36.519Z,18.40
2018-09-01T05:09:06.005Z,18.40
2018-09-01T05:11:34.203Z,18.40
2018-09-01T05:14:02.413Z,18.50
2018-09-01T05:16:30.551Z,18.40
2018-09-01T05:18:58.713Z,18.40
2018-09-01T05:21:26.916Z,18.40
2018-09-01T05:23:55.079Z,18.40
2018-09-01T05:26:23.333Z,18.40
2018-09-01T05:28:51.599Z,18.40
2018-09-01T05:31:19.743Z,18.50
2018-09-01T05:33:48.068Z,18.50
2018-09-01T05:36:16.391Z,18.50
2018-09-01T05:38:44.500Z,18.50
2018-09-01T05:41:12.685Z,18.50
2018-09-01T05:43:40.828Z,18.50
2018-09-01T05:46:08.918Z,18.60
2018-09-01T05:48:37.071Z,18.60
2018-09-01T05:51:05.283Z,18.50
2018-09-01T05:53:33.436Z,18.50
2018-09-01T05:56:01.626Z,18.60
2018-09-01T05:58:29.766Z,18.60
2018-09-01T06:00:57.982Z,18.60
2018-09-01T06:03:26.128Z,18.60
2018-09-01T06:10:52.757Z,18.60
2018-09-01T06:13:20.899Z,18.60
2018-09-01T06:15:49.176Z,18.60
2018-09-01T06:18:17.394Z,18.60
2018-09-01T06:20:45.670Z,18.70
2018-09-01T06:23:13.895Z,18.70
2018-09-01T06:25:42.014Z,18.70
2018-09-01T06:28:16.176Z,18.70
2018-09-01T06:30:47.187Z,18.70
2018-09-01T06:33:15.347Z,18.70
2018-09-01T06:35:43.852Z,18.70
2018-09-01T06:38:13.385Z,18.80
2018-09-01T06:40:41.862Z,18.80
2018-09-01T06:43:10.552Z,18.80
2018-09-01T06:45:38.662Z,18.80
2018-09-01T06:48:07.359Z,18.90
2018-09-01T06:50:35.942Z,18.40
2018-09-01T06:53:04.320Z,18.90
2018-09-01T06:55:33.738Z,18.90
2018-09-01T06:58:02.339Z,19.00
2018-09-01T07:03:08.681Z,19.10
2018-09-01T07:05:36.986Z,19.20
2018-09-01T07:08:05.399Z,19.20
2018-09-01T07:10:33.846Z,19.20
2018-09-01T07:13:02.207Z,19.30
2018-09-01T07:15:30.587Z,19.30
2018-09-01T07:17:58.735Z,19.30
2018-09-01T07:20:27.027Z,19.40
2018-09-01T07:22:55.388Z,19.30
2018-09-01T07:25:23.502Z,19.30
2018-09-01T07:27:51.735Z,19.40
2018-09-01T07:30:29.432Z,19.40
2018-09-01T07:32:57.463Z,19.40
2018-09-01T07:35:25.877Z,19.40
2018-09-01T07:37:54.167Z,19.50
2018-09-01T07:40:22.505Z,19.40
2018-09-01T07:42:50.903Z,19.50
2018-09-01T07:45:19.110Z,19.50
2018-09-01T07:47:47.543Z,19.50
2018-09-01T07:50:15.887Z,19.50
2018-09-01T07:52:44.083Z,19.60
2018-09-01T07:55:12.232Z,19.60
2018-09-01T07:57:40.371Z,19.50
2018-09-01T08:00:08.483Z,19.50
2018-09-01T08:02:36.951Z,19.60
2018-09-01T08:05:05.668Z,19.60
2018-09-01T08:07:33.904Z,19.60
2018-09-01T08:10:06.709Z,19.60
2018-09-01T08:12:35.217Z,19.60
2018-09-01T08:15:03.772Z,19.70
2018-09-01T08:17:32.347Z,19.70
2018-09-01T08:20:00.628Z,19.80
2018-09-01T08:22:28.912Z,19.80
2018-09-01T08:24:57.305Z,19.80
2018-09-01T08:27:25.742Z,19.80
2018-09-01T08:29:54.797Z,19.90
2018-09-01T08:32:23.775Z,19.90
2018-09-01T08:34:51.992Z,19.90
2018-09-01T08:37:20.250Z,19.90
2018-09-01T08:42:27.097Z,19.90
2018-09-01T08:44:56.168Z,19.90
2018-09-01T08:50:11.967Z,20.00
2018-09-01T08:52:43.626Z,20.00
2018-09-01T08:55:11.842Z,20.10
2018-09-01T08:57:40.305Z,20.10
2018-09-01T09:00:08.680Z,20.20
2018-09-01T09:02:36.968Z,20.10
2018-09-01T09:05:05.231Z,20.20
2018-09-01T09:07:34.460Z,20.20
2018-09-01T09:10:03.435Z,20.20
2018-09-01T09:12:31.648Z,20.30
2018-09-01T09:15:00.388Z,20.30
2018-09-01T09:17:31.264Z,20.30
2018-09-01T09:19:59.960Z,20.30
2018-09-01T09:22:29.342Z,20.40
2018-09-01T09:24:58.031Z,20.40
2018-09-01T09:27:28.746Z,20.40
2018-09-01T09:29:58.598Z,20.40
2018-09-01T09:32:26.927Z,20.50
2018-09-01T09:34:55.226Z,20.40
2018-09-01T09:37:23.764Z,20.50
2018-09-01T09:39:51.964Z,20.50
2018-09-01T09:42:20.143Z,20.50
2018-09-01T09:44:48.771Z,20.60
2018-09-01T09:47:16.941Z,20.60
2018-09-01T09:49:45.130Z,20.60
2018-09-01T09:52:13.326Z,20.60
2018-09-01T09:54:41.521Z,20.70
2018-09-01T09:57:09.752Z,20.70
2018-09-01T09:59:38.196Z,20.70
2018-09-01T10:02:14.801Z,20.80
2018-09-01T10:04:55.870Z,20.80
2018-09-01T10:10:09.503Z,20.90
2018-09-01T10:12:38.155Z,20.90
2018-09-01T10:15:06.540Z,20.90
2018-09-01T10:17:58.142Z,21.00
2018-09-01T10:20:30.128Z,21.00
2018-09-01T10:22:58.377Z,21.00
2018-09-01T10:25:27.672Z,21.00
2018-09-01T10:28:00.352Z,21.10
2018-09-01T10:30:29.411Z,21.10
2018-09-01T10:32:57.847Z,21.20
2018-09-01T10:35:26.031Z,21.20
2018-09-01T10:37:54.963Z,21.20
2018-09-01T10:40:23.235Z,21.30
2018-09-01T10:42:51.578Z,21.30
2018-09-01T10:45:19.955Z,21.30
2018-09-01T10:47:49.037Z,21.40
2018-09-01T10:50:17.418Z,21.40
2018-09-01T10:52:45.846Z,21.50
2018-09-01T10:55:35.639Z,21.50
2018-09-01T10:58:04.120Z,21.50
2018-09-01T11:00:33.955Z,21.50
2018-09-01T11:03:04.605Z,21.60
2018-09-01T11:05:34.931Z,21.60
2018-09-01T11:08:03.031Z,21.60
2018-09-01T11:10:31.155Z,21.60
2018-09-01T11:12:59.681Z,21.60
2018-09-01T11:15:27.983Z,21.60
2018-09-01T11:17:56.198Z,21.60
2018-09-01T11:20:24.355Z,21.70
2018-09-01T11:22:53.403Z,21.70
2018-09-01T11:25:21.564Z,21.60
2018-09-01T11:27:49.740Z,21.60
2018-09-01T11:30:17.969Z,21.60
2018-09-01T11:32:46.158Z,21.60
2018-09-01T11:35:14.322Z,21.60
2018-09-01T11:37:42.564Z,21.60
2018-09-01T11:40:11.416Z,21.60
2018-09-01T11:42:39.730Z,21.70
2018-09-01T11:45:07.792Z,21.80
2018-09-01T11:47:35.922Z,21.90
2018-09-01T11:50:04.206Z,21.90
2018-09-01T11:52:32.381Z,22.00
2018-09-01T11:55:00.560Z,22.10
2018-09-01T11:57:28.675Z,22.20
2018-09-01T11:59:56.831Z,22.50
2018-09-01T12:02:25.004Z,22.70
2018-09-01T12:04:53.337Z,22.70
2018-09-01T12:07:21.500Z,22.70
2018-09-01T12:09:49.627Z,22.60
2018-09-01T12:12:17.774Z,22.60
2018-09-01T12:14:45.938Z,22.50
2018-09-01T12:17:14.142Z,22.60
2018-09-01T12:19:42.267Z,22.60
2018-09-01T12:22:10.426Z,22.60
2018-09-01T12:24:38.542Z,22.70
2018-09-01T12:27:06.688Z,22.70
2018-09-01T12:29:34.887Z,22.70
2018-09-01T12:32:03.992Z,22.80
2018-09-01T12:34:32.647Z,22.80
2018-09-01T12:37:03.288Z,22.80
2018-09-01T12:39:31.588Z,22.80
2018-09-01T12:41:59.792Z,22.90
2018-09-01T12:44:27.985Z,22.90
2018-09-01T12:46:56.126Z,22.90
2018-09-01T12:49:24.312Z,23.00
2018-09-01T12:51:52.810Z,23.00
2018-09-01T12:54:20.955Z,23.00
2018-09-01T12:56:49.224Z,23.10
2018-09-01T12:59:17.434Z,23.10
2018-09-01T13:01:45.776Z,23.10
2018-09-01T13:04:13.966Z,23.20
2018-09-01T13:06:42.070Z,23.20
2018-09-01T13:09:10.174Z,23.20
2018-09-01T13:11:38.306Z,23.20
2018-09-01T13:14:06.474Z,23.20
2018-09-01T13:16:34.705Z,23.20
2018-09-01T13:19:02.891Z,23.30
2018-09-01T13:21:31.063Z,23.30
2018-09-01T13:23:59.209Z,23.30
2018-09-01T13:26:27.346Z,23.30
2018-09-01T13:28:55.487Z,23.40
2018-09-01T13:31:23.730Z,23.30
2018-09-01T13:33:51.862Z,23.40
2018-09-01T13:36:20.014Z,23.30
2018-09-01T13:38:48.291Z,23.40
2018-09-01T13:41:19.124Z,23.40
2018-09-01T13:43:47.222Z,23.40
2018-09-01T13:46:15.391Z,23.40
2018-09-01T13:48:43.537Z,23.50
2018-09-01T13:51:11.715Z,23.50
2018-09-01T13:53:39.846Z,23.50
2018-09-01T13:56:07.924Z,23.50
2018-09-01T13:58:36.014Z,23.40
2018-09-01T14:01:04.234Z,23.40
2018-09-01T14:03:32.334Z,23.30
2018-09-01T14:06:00.419Z,23.30
2018-09-01T14:08:28.574Z,23.30
2018-09-01T14:10:56.760Z,23.20
2018-09-01T14:13:24.939Z,23.10
2018-09-01T14:15:53.074Z,23.00
2018-09-01T14:18:21.246Z,23.00
2018-09-01T14:20:49.420Z,23.00
2018-09-01T14:23:17.578Z,23.10
2018-09-01T14:25:45.706Z,23.10
2018-09-01T14:28:14.026Z,23.00
2018-09-01T14:30:42.247Z,23.10
2018-09-01T14:33:10.615Z,23.10
2018-09-01T14:35:38.979Z,23.10
2018-09-01T14:38:07.118Z,23.10
2018-09-01T14:40:35.338Z,23.10
2018-09-01T14:43:03.474Z,23.20
2018-09-01T14:45:31.684Z,23.10
2018-09-01T14:47:59.861Z,23.10
2018-09-01T14:50:28.354Z,23.10
2018-09-01T14:52:56.519Z,23.20
2018-09-01T14:55:24.732Z,23.20
2018-09-01T14:57:52.845Z,23.10
2018-09-01T15:00:21.050Z,23.00
2018-09-01T15:02:50.816Z,23.00
2018-09-01T15:05:18.968Z,23.00
2018-09-01T15:07:47.077Z,22.90
2018-09-01T15:10:15.942Z,22.90
2018-09-01T15:15:23.063Z,22.80
2018-09-01T15:17:51.185Z,22.70
2018-09-01T15:20:19.274Z,22.70
2018-09-01T15:22:47.479Z,22.60
2018-09-01T15:25:15.613Z,22.60
2018-09-01T15:27:43.686Z,22.50
2018-09-01T15:30:11.831Z,22.50
2018-09-01T15:32:40.158Z,22.50
2018-09-01T15:35:08.333Z,22.50
2018-09-01T15:37:36.446Z,22.40
2018-09-01T15:40:04.634Z,22.50
2018-09-01T15:42:37.005Z,22.50
2018-09-01T15:45:13.725Z,22.50
2018-09-01T15:47:42.845Z,22.50
2018-09-01T15:50:11.012Z,22.60
2018-09-01T15:52:39.137Z,22.50
2018-09-01T15:55:07.763Z,22.50
2018-09-01T15:57:35.945Z,22.50
2018-09-01T16:00:04.102Z,22.60
2018-09-01T16:02:32.280Z,22.50
2018-09-01T16:05:00.390Z,22.50
2018-09-01T16:07:28.486Z,22.40
2018-09-01T16:09:56.664Z,22.40
2018-09-01T16:12:24.909Z,22.40
2018-09-01T16:14:53.102Z,22.40
2018-09-01T16:17:21.237Z,22.40
2018-09-01T16:19:49.360Z,22.30
2018-09-01T16:22:17.490Z,22.40
2018-09-01T16:24:45.661Z,22.30
2018-09-01T16:27:13.839Z,22.40
2018-09-01T16:29:42.088Z,22.40
2018-09-01T16:32:10.207Z,22.40
2018-09-01T16:34:38.550Z,22.40
2018-09-01T16:37:06.562Z,22.30
2018-09-01T16:39:34.770Z,22.40
2018-09-01T16:42:02.864Z,22.40
2018-09-01T16:44:31.008Z,22.50
2018-09-01T16:46:59.170Z,22.50
2018-09-01T16:49:27.306Z,22.50
2018-09-01T16:51:55.705Z,22.60
2018-09-01T16:54:23.978Z,22.60
2018-09-01T16:56:52.090Z,22.60
2018-09-01T16:59:20.218Z,22.60
2018-09-01T17:01:48.331Z,22.60
2018-09-01T17:04:16.438Z,22.60
2018-09-01T17:06:44.604Z,22.50
2018-09-01T17:09:12.959Z,22.50
2018-09-01T17:11:41.728Z,22.40
2018-09-01T17:14:10.109Z,22.40
2018-09-01T17:16:38.256Z,22.40
2018-09-01T17:19:06.370Z,22.40
2018-09-01T17:21:34.489Z,22.40
2018-09-01T17:24:02.627Z,22.40
2018-09-01T17:26:30.974Z,22.30
2018-09-01T17:28:59.133Z,22.30
2018-09-01T17:31:27.314Z,22.30
2018-09-01T17:33:55.519Z,22.30
2018-09-01T17:36:23.678Z,22.30
2018-09-01T17:38:51.786Z,22.30
2018-09-01T17:41:19.947Z,22.30
2018-09-01T17:43:48.463Z,22.30
2018-09-01T17:46:16.784Z,22.30
2018-09-01T17:48:45.909Z,22.30
2018-09-01T17:51:14.233Z,22.20
2018-09-01T17:53:42.368Z,22.20
2018-09-01T17:58:49.964Z,22.20
2018-09-01T18:01:19.584Z,22.20
2018-09-01T18:03:47.882Z,22.30
2018-09-01T18:06:16.091Z,22.30
2018-09-01T18:08:44.414Z,22.30
2018-09-01T18:11:12.545Z,22.30
2018-09-01T18:13:40.969Z,22.20
2018-09-01T18:16:09.170Z,22.20
2018-09-01T18:18:37.272Z,22.20
2018-09-01T18:21:05.413Z,22.20
2018-09-01T18:23:33.680Z,22.20
2018-09-01T18:26:01.699Z,22.10
2018-09-01T18:28:29.819Z,22.00
2018-09-01T18:30:57.951Z,21.90
2018-09-01T18:33:26.055Z,21.90
2018-09-01T18:35:54.528Z,21.80
2018-09-01T18:38:22.664Z,21.70
2018-09-01T18:40:50.854Z,21.70
2018-09-01T18:43:19.823Z,21.60
2018-09-01T18:45:48.071Z,21.60
2018-09-01T18:48:16.296Z,21.60
2018-09-01T18:50:44.442Z,21.50
2018-09-01T18:53:12.635Z,21.50
2018-09-01T18:55:40.767Z,21.40
2018-09-01T18:58:08.926Z,21.40
2018-09-01T19:00:37.096Z,21.40
2018-09-01T19:03:05.327Z,21.40
2018-09-01T19:05:33.551Z,21.40
2018-09-01T19:08:01.845Z,21.40
2018-09-01T19:10:30.067Z,21.40
2018-09-01T19:12:58.263Z,21.40
2018-09-01T19:15:26.492Z,21.40
2018-09-01T19:17:54.646Z,21.30
2018-09-01T19:20:22.746Z,21.30
2018-09-01T19:22:50.785Z,21.30
2018-09-01T19:25:18.977Z,21.30
2018-09-01T19:27:48.427Z,21.20
2018-09-01T19:30:16.571Z,21.30
2018-09-01T19:32:45.480Z,21.20
2018-09-01T19:35:13.667Z,21.20
2018-09-01T19:37:44.659Z,21.20
2018-09-01T19:40:12.812Z,21.20
2018-09-01T19:42:40.948Z,21.20
2018-09-01T19:45:09.226Z,21.10
2018-09-01T19:47:37.451Z,21.10
2018-09-01T19:50:05.554Z,21.10
2018-09-01T19:52:33.686Z,21.10
2018-09-01T19:55:02.554Z,21.10
2018-09-01T19:57:30.855Z,21.10
2018-09-01T19:59:58.964Z,21.10
2018-09-01T20:02:27.156Z,21.10
2018-09-01T20:04:55.855Z,21.00
2018-09-01T20:07:24.134Z,21.00
2018-09-01T20:09:53.104Z,21.00
2018-09-01T20:12:21.223Z,21.00
2018-09-01T20:14:49.342Z,21.00
2018-09-01T20:17:17.433Z,21.00
2018-09-01T20:19:45.602Z,21.00
2018-09-01T20:22:13.848Z,21.00
2018-09-01T20:24:42.038Z,21.00
2018-09-01T20:27:10.128Z,20.90
2018-09-01T20:29:38.306Z,21.00
2018-09-01T20:32:06.582Z,21.00
2018-09-01T20:34:37.344Z,21.00
2018-09-01T20:37:06.315Z,21.00
2018-09-01T20:39:34.588Z,21.10
2018-09-01T20:42:02.802Z,21.10
2018-09-01T20:44:31.452Z,21.10
2018-09-01T20:46:59.939Z,21.10
2018-09-01T20:49:28.069Z,21.10
2018-09-01T20:51:56.242Z,21.10
2018-09-01T20:54:24.354Z,21.00
2018-09-01T20:56:52.477Z,21.00
2018-09-01T20:59:20.574Z,21.00
2018-09-01T21:01:48.727Z,21.00
2018-09-01T21:04:16.917Z,21.00
2018-09-01T21:06:45.059Z,21.00
2018-09-01T21:09:13.239Z,21.00
2018-09-01T21:11:41.982Z,21.00
2018-09-01T21:14:10.667Z,21.00
2018-09-01T21:16:38.952Z,21.00
2018-09-01T21:19:07.158Z,20.90
2018-09-01T21:21:35.274Z,21.00
2018-09-01T21:24:03.914Z,20.90
2018-09-01T21:26:32.070Z,20.90
2018-09-01T21:29:00.138Z,20.90
2018-09-01T21:31:28.267Z,20.90
2018-09-01T21:33:56.882Z,20.90
2018-09-01T21:36:25.412Z,20.90
2018-09-01T21:38:53.539Z,20.90
2018-09-01T21:41:21.750Z,20.90
2018-09-01T21:43:50.189Z,20.90
2018-09-01T21:46:18.303Z,20.90
2018-09-01T21:48:46.406Z,20.90
2018-09-01T21:51:14.568Z,20.90
2018-09-01T21:53:42.617Z,20.90
2018-09-01T21:56:10.834Z,20.90
2018-09-01T21:58:38.966Z,20.90
2018-09-01T22:01:12.974Z,20.90
2018-09-01T22:03:48.170Z,20.90
2018-09-01T22:06:17.419Z,20.90
2018-09-01T22:08:45.592Z,20.80
2018-09-01T22:11:13.683Z,20.80
2018-09-01T22:13:42.079Z,20.80
2018-09-01T22:16:10.268Z,20.80
2018-09-01T22:18:38.806Z,20.80
2018-09-01T22:21:07.511Z,20.80
2018-09-01T22:23:35.998Z,20.70
2018-09-01T22:26:04.235Z,20.80
2018-09-01T22:28:32.461Z,20.90
2018-09-01T22:31:00.547Z,20.90
2018-09-01T22:33:29.261Z,20.80
2018-09-01T22:35:57.453Z,20.80
2018-09-01T22:38:25.579Z,20.80
2018-09-01T22:40:54.191Z,20.80
2018-09-01T22:43:22.449Z,20.80
2018-09-01T22:45:50.564Z,20.80
2018-09-01T22:48:18.763Z,20.80
2018-09-01T22:50:46.958Z,20.70
2018-09-01T22:53:15.103Z,20.70
2018-09-01T22:55:43.281Z,20.70
2018-09-01T22:58:11.455Z,20.70
2018-09-01T23:00:39.619Z,20.70
2018-09-01T23:03:07.743Z,20.70
2018-09-01T23:05:35.890Z,20.70
2018-09-01T23:08:04.027Z,20.70
2018-09-01T23:10:32.178Z,20.70
2018-09-01T23:13:00.401Z,20.70
2018-09-01T23:15:28.520Z,20.60
2018-09-01T23:17:56.661Z,20.60
2018-09-01T23:20:25.369Z,20.60
2018-09-01T23:22:53.552Z,20.60
2018-09-01T23:25:21.723Z,20.60
2018-09-01T23:27:50.673Z,20.60
2018-09-01T23:30:18.864Z,20.50
2018-09-01T23:32:47.559Z,20.50
2018-09-01T23:35:15.691Z,20.50
2018-09-01T23:37:43.803Z,20.50
2018-09-01T23:40:11.887Z,20.50
2018-09-01T23:42:40.043Z,20.50
2018-09-01T23:45:08.195Z,20.50
2018-09-01T23:47:36.287Z,20.40
2018-09-01T23:50:04.842Z,20.50
2018-09-01T23:52:33.032Z,20.50
2018-09-01T23:55:01.290Z,20.40
2018-09-01T23:57:29.483Z,20.40
2018-09-01T23:59:57.651Z,20.40
